LIY weather

Wright AAF (Fort Stewart)/Midcoast Regional Airport
Fort Stewart(Hinesville), Georgia, United States

Public forecast

Using degrees Fahrenheit for public forecast. Weather courtesy of forecast.io.

Current aviation weather report (METAR) for Wright AAF (Fort Stewart)/Midcoast Regional Airport

Retrieved 2019/10/17 05:56 UTC (37 minutes ago):

KLHW 170556Z AUTO 31007KT 10SM CLR 17/10 A2987 RMK AO2 SLP118 T01660100 10228 20166 50006

Closest aviation forecast (TAF) to Wright AAF (Fort Stewart)/Midcoast Regional Airport

Closest forecast is Hunter Army Air Field, 22.4 nm (41.5 km) ENE. Retrieved 2019-10-17 04:19 UTC (2 hours ago):

TAF KSVN 170400Z 1704/1810 30012KT 9999 FEW200 QNH2986INS TX23/1721Z TN12/1712Z